Time;durP1;ratioP1;P1;durP2;ratioP2;P2;SDS_P1;SDS_P2;PMS_P1;PMS_P2;Temp;Humidity;BMP_temperature;BMP_pressure;BME280_temperature;BME280_humidity;BME280_pressure;Samples;Min_cycle;Max_cycle;Signal;HPM_P1;HPM_P2
2023/03/28 00:00:51;;;;;;;;;;;;;;;;;;5076055;28;19923;-74
2023/03/28 00:03:55;;;;;;;;;;;;;;;;;;5075818;28;19922;-74
2023/03/28 00:06:58;;;;;;;;;;;;;;;;;;5075769;28;19922;-74
2023/03/28 00:10:02;;;;;;;;;;;;;;;;;;5075814;28;19920;-74
2023/03/28 00:13:05;;;;;;;;;;;;;;;;;;5075700;28;20369;-75
2023/03/28 00:16:08;;;;;;;;;;;;;;;;;;5075815;28;19920;-75
2023/03/28 00:19:11;;;;;;;;;;;;;;;;;;5075426;28;20331;-74
2023/03/28 00:22:15;;;;;;;;;;;;;;;;;;5075290;28;19923;-76
2023/03/28 00:25:18;;;;;;;;;;;;;;;;;;5074586;28;19919;-75
2023/03/28 00:28:21;;;;;;;;;;;;;;;;;;5074767;28;19937;-75
2023/03/28 00:31:24;;;;;;;;;;;;;;;;;;5075389;28;19920;-75
2023/03/28 00:34:26;;;;;;;;;;;;;;;;;;5075270;28;19974;-75
2023/03/28 00:37:30;;;;;;;;;;;;;;;;;;5074418;28;20061;-75
2023/03/28 00:40:34;;;;;;;;;;;;;;;;;;5073537;28;19924;-75
2023/03/28 00:43:38;;;;;;;;;;;;;;;;;;5075101;28;19965;-74
2023/03/28 00:46:40;;;;;;;;;;;;;;;;;;5075164;28;19935;-74
2023/03/28 00:49:43;;;;;;;;;;;;;;;;;;5075029;28;20047;-74
2023/03/28 00:52:48;;;;;;;;;;;;;;;;;;5074054;28;19919;-74
2023/03/28 00:55:51;;;;;;;;;;;;;;;;;;5074924;28;19926;-74
2023/03/28 00:58:54;;;;;;;;;;;;;;;;;;5073971;28;19951;-75
2023/03/28 01:01:57;;;;;;;;;;;;;;;;;;5073805;28;19963;-75
2023/03/28 01:05:00;;;;;;;;;;;;;;;;;;5073802;28;19973;-76
2023/03/28 01:08:03;;;;;;;;;;;;;;;;;;5074128;28;19958;-76
2023/03/28 01:11:06;;;;;;;;;;;;;;;;;;5073750;28;19920;-76
2023/03/28 01:14:12;;;;;;;;;;;;;;;;;;5062064;28;19973;-76
2023/03/28 01:17:15;;;;;;;;;;;;;;;;;;5073431;28;19965;-76
2023/03/28 01:20:17;;;;;;;;;;;;;;;;;;5074419;28;19927;-75
2023/03/28 01:23:21;;;;;;;;;;;;;;;;;;5074323;28;20305;-75
2023/03/28 01:26:24;;;;;;;;;;;;;;;;;;5073355;28;19973;-74
2023/03/28 01:29:26;;;;;;;;;;;;;;;;;;5073462;28;19920;-74
2023/03/28 01:32:33;;;;;;;;;;;;;;;;;;5073210;28;19924;-74
2023/03/28 01:35:46;;;;;;;;;;;;;;;;;;5073410;28;19939;-75
2023/03/28 01:38:48;;;;;;;;;;;;;;;;;;5073219;28;20014;-74
2023/03/28 01:41:52;;;;;;;;;;;;;;;;;;5073114;28;19938;-74
2023/03/28 01:44:55;;;;;;;;;;;;;;;;;;5074160;28;20141;-74
2023/03/28 01:47:57;;;;;;;;;;;;;;;;;;5072879;28;19920;-74
2023/03/28 01:51:00;;;;;;;;;;;;;;;;;;5073251;28;19923;-74
2023/03/28 01:54:03;;;;;;;;;;;;;;;;;;5072531;28;20288;-74
2023/03/28 01:57:09;;;;;;;;;;;;;;;;;;5072803;28;19920;-74
2023/03/28 02:00:12;;;;;;;;;;;;;;;;;;5072707;28;19920;-74
2023/03/28 02:03:34;;;;;;;;;;;;;;;;;;5073835;28;20379;-74
2023/03/28 02:06:45;;;;;;;;;;;;;;;;;;5072895;28;20296;-74
2023/03/28 02:09:51;;;;;;;;;;;;;;;;;;5072814;28;20011;-74
2023/03/28 02:13:17;;;;;;;;;;;;;;;;;;5073671;28;19966;-74
2023/03/28 02:16:56;;;;;;;;;;;;;;;;;;5073162;28;20379;-75
2023/03/28 02:20:18;;;;;;;;;;;;;;;;;;5073207;28;19920;-75
2023/03/28 02:23:53;;;;;;;;;;;;;;;;;;5066855;28;19920;-75
2023/03/28 02:27:14;;;;;;;;;;;;;;;;;;5073191;28;19920;-74
2023/03/28 02:30:27;;;;;;;;;;;;;;;;;;5072185;28;19958;-75
2023/03/28 02:33:30;;;;;;;;;;;;;;;;;;5071947;28;19957;-75
2023/03/28 02:36:34;;;;;;;;;;;;;;;;;;5060546;28;19920;-74
2023/03/28 02:39:39;;;;;;;;;;;;;;;;;;5072892;28;19919;-74
2023/03/28 02:42:42;;;;;;;;;;;;;;;;;;5071874;28;20336;-75
2023/03/28 02:45:45;;;;;;;;;;;;;;;;;;5071904;28;19970;-75
2023/03/28 02:48:48;;;;;;;;;;;;;;;;;;5072734;28;20384;-75
2023/03/28 02:51:51;;;;;;;;;;;;;;;;;;5071790;28;19973;-75
2023/03/28 02:54:54;;;;;;;;;;;;;;;;;;5071656;28;20021;-75
2023/03/28 02:58:09;;;;;;;;;;;;;;;;;;5071845;28;19927;-75
2023/03/28 03:01:13;;;;;;;;;;;;;;;;;;5071638;28;19923;-75
2023/03/28 03:04:16;;;;;;;;;;;;;;;;;;5071803;28;19921;-75
2023/03/28 03:07:19;;;;;;;;;;;;;;;;;;5071631;28;19920;-75
2023/03/28 03:10:22;;;;;;;;;;;;;;;;;;5071624;28;19966;-75
2023/03/28 03:13:25;;;;;;;;;;;;;;;;;;5072753;28;20272;-74
2023/03/28 03:16:28;;;;;;;;;;;;;;;;;;5071431;28;19920;-75
2023/03/28 03:19:32;;;;;;;;;;;;;;;;;;5071728;28;20402;-74
2023/03/28 03:22:35;;;;;;;;;;;;;;;;;;5071378;28;20379;-75
2023/03/28 03:25:38;;;;;;;;;;;;;;;;;;5072346;28;20292;-75
2023/03/28 03:29:08;;;;;;;;;;;;;;;;;;5071350;28;19939;-76
2023/03/28 03:32:11;;;;;;;;;;;;;;;;;;5071395;28;19919;-75
2023/03/28 03:35:19;;;;;;;;;;;;;;;;;;5071336;28;19936;-76
2023/03/28 03:38:21;;;;;;;;;;;;;;;;;;5071668;28;20391;-76
2023/03/28 03:41:25;;;;;;;;;;;;;;;;;;5072272;28;20061;-76
2023/03/28 03:44:27;;;;;;;;;;;;;;;;;;5071229;28;19967;-76
2023/03/28 03:47:31;;;;;;;;;;;;;;;;;;5071157;28;20346;-77
2023/03/28 03:50:35;;;;;;;;;;;;;;;;;;5072058;28;20445;-76
2023/03/28 03:53:39;;;;;;;;;;;;;;;;;;5070998;28;20030;-76
2023/03/28 03:56:48;;;;;;;;;;;;;;;;;;5071207;28;20387;-78
2023/03/28 03:59:51;;;;;;;;;;;;;;;;;;5071170;28;19975;-76
2023/03/28 04:02:56;;;;;;;;;;;;;;;;;;5070995;28;19923;-76
2023/03/28 04:06:04;;;;;;;;;;;;;;;;;;5071189;28;19966;-77
2023/03/28 04:09:07;;;;;;;;;;;;;;;;;;5071019;28;19935;-77
2023/03/28 04:12:39;;;;;;;;;;;;;;;;;;5071926;28;19920;-77
2023/03/28 04:15:43;;;;;;;;;;;;;;;;;;5072136;28;20470;-77
2023/03/28 04:19:09;;;;;;;;;;;;;;;;;;5074503;28;19920;-76
2023/03/28 04:22:13;;;;;;;;;;;;;;;;;;5074548;28;19928;-76
2023/03/28 04:25:23;;;;;;;;;;;;;;;;;;5072935;28;20424;-77
2023/03/28 04:28:27;;;;;;;;;;;;;;;;;;5074072;28;20018;-76
2023/03/28 04:31:34;;;;;;;;;;;;;;;;;;5063045;28;19978;-78
2023/03/28 04:35:06;;;;;;;;;;;;;;;;;;5075233;28;19919;-76
2023/03/28 04:38:10;;;;;;;;;;;;;;;;;;5074590;28;19920;-74
2023/03/28 04:41:15;;;;;;;;;;;;;;;;;;5074146;28;19974;-74
2023/03/28 04:44:47;;;;;;;;;;;;;;;;;;5061116;28;19974;-76
2023/03/28 04:47:50;;;;;;;;;;;;;;;;;;5062432;28;19919;-76
2023/03/28 04:50:55;;;;;;;;;;;;;;;;;;5074047;28;19974;-75
2023/03/28 04:53:58;;;;;;;;;;;;;;;;;;5073904;28;19926;-76
2023/03/28 04:57:20;;;;;;;;;;;;;;;;;;5074886;28;19962;-75
2023/03/28 05:00:28;;;;;;;;;;;;;;;;;;5073789;28;19927;-75
2023/03/28 05:03:40;;;;;;;;;;;;;;;;;;5074990;28;20009;-76
2023/03/28 05:06:44;;;;;;;;;;;;;;;;;;5073781;28;19923;-76
2023/03/28 05:09:49;;;;;;;;;;;;;;;;;;5074586;28;19966;-75
2023/03/28 05:12:52;;;;;;;;;;;;;;;;;;5073679;28;19946;-74
2023/03/28 05:15:55;;;;;;;;;;;;;;;;;;5074529;28;20326;-73
2023/03/28 05:19:17;;;;;;;;;;;;;;;;;;5074435;28;19966;-73
2023/03/28 05:22:46;;;;;;;;;;;;;;;;;;5074255;28;20010;-73
2023/03/28 05:25:49;;;;;;;;;;;;;;;;;;5074288;28;19920;-73
2023/03/28 05:28:52;;;;;;;;;;;;;;;;;;5061190;28;20029;-74
2023/03/28 05:31:56;;;;;;;;;;;;;;;;;;5073162;28;19924;-74
2023/03/28 05:35:05;;;;;;;;;;;;;;;;;;5073347;28;19966;-72
2023/03/28 05:38:08;;;;;;;;;;;;;;;;;;5073168;28;19919;-73
2023/03/28 05:41:11;;;;;;;;;;;;;;;;;;5074091;28;20018;-73
2023/03/28 05:44:14;;;;;;;;;;;;;;;;;;5073036;28;19923;-74
2023/03/28 05:47:42;;;;;;;;;;;;;;;;;;5072903;28;19928;-74
2023/03/28 05:50:45;;;;;;;;;;;;;;;;;;5073872;28;19920;-73
2023/03/28 05:53:48;;;;;;;;;;;;;;;;;;5073724;28;20438;-73
2023/03/28 05:56:51;;;;;;;;;;;;;;;;;;5073008;28;19958;-74
2023/03/28 05:59:55;;;;;;;;;;;;;;;;;;5073686;28;19968;-73
2023/03/28 06:02:58;;;;;;;;;;;;;;;;;;5072688;28;20003;-74
2023/03/28 06:06:12;;;;;;;;;;;;;;;;;;5071880;28;19923;-73
2023/03/28 06:09:15;;;;;;;;;;;;;;;;;;5073240;28;19958;-73
2023/03/28 06:12:27;;;;;;;;;;;;;;;;;;5069424;28;20299;-72
2023/03/28 06:15:30;;;;;;;;;;;;;;;;;;5071417;28;19919;-73
2023/03/28 06:18:33;;;;;;;;;;;;;;;;;;5070645;28;19920;-72
2023/03/28 06:21:37;;;;;;;;;;;;;;;;;;5071663;28;19969;-72
2023/03/28 06:28:22;;;;;;;;;;;;;;;;;;5072470;28;19999;-73
2023/03/28 06:31:53;;;;;;;;;;;;;;;;;;5072649;28;19931;-72
2023/03/28 06:34:56;;;;;;;;;;;;;;;;;;5073244;28;19923;-72
2023/03/28 06:38:00;;;;;;;;;;;;;;;;;;5072065;28;19924;-74
2023/03/28 06:41:02;;;;;;;;;;;;;;;;;;5072020;28;19943;-72
2023/03/28 06:44:05;;;;;;;;;;;;;;;;;;5072263;28;19974;-73
2023/03/28 06:47:36;;;;;;;;;;;;;;;;;;5071580;28;20006;-73
2023/03/28 06:50:39;;;;;;;;;;;;;;;;;;5072191;28;20331;-76
2023/03/28 06:53:46;;;;;;;;;;;;;;;;;;5071785;28;19927;-72
2023/03/28 06:56:51;;;;;;;;;;;;;;;;;;5071903;28;19999;-72
2023/03/28 06:59:54;;;;;;;;;;;;;;;;;;5071835;28;19919;-78
2023/03/28 07:03:03;;;;;;;;;;;;;;;;;;5071673;28;19927;-73
2023/03/28 07:06:06;;;;;;;;;;;;;;;;;;5072102;28;19919;-71
2023/03/28 07:09:09;;;;;;;;;;;;;;;;;;5072076;28;19935;-72
2023/03/28 07:12:41;;;;;;;;;;;;;;;;;;5072619;28;19920;-72
2023/03/28 07:15:44;;;;;;;;;;;;;;;;;;5071787;28;19918;-72
2023/03/28 07:18:47;;;;;;;;;;;;;;;;;;5072483;28;19919;-72
2023/03/28 07:21:56;;;;;;;;;;;;;;;;;;5071550;28;19923;-74
2023/03/28 07:24:59;;;;;;;;;;;;;;;;;;5071712;28;19974;-74
2023/03/28 07:28:02;;;;;;;;;;;;;;;;;;5072590;28;20011;-68
2023/03/28 07:31:05;;;;;;;;;;;;;;;;;;5072781;28;20045;-71
2023/03/28 07:34:10;;;;;;;;;;;;;;;;;;5071602;28;19919;-70
2023/03/28 07:37:13;;;;;;;;;;;;;;;;;;5071855;28;19963;-71
2023/03/28 07:40:37;;;;;;;;;;;;;;;;;;5072343;28;20329;-71
2023/03/28 07:43:40;;;;;;;;;;;;;;;;;;5071507;28;19919;-71
2023/03/28 07:46:43;;;;;;;;;;;;;;;;;;5071219;28;19962;-71
2023/03/28 07:49:46;;;;;;;;;;;;;;;;;;5072227;28;20331;-71
2023/03/28 07:52:49;;;;;;;;;;;;;;;;;;5075371;28;19957;-71
2023/03/28 07:55:52;;;;;;;;;;;;;;;;;;5075252;28;20069;-71
2023/03/28 07:58:55;;;;;;;;;;;;;;;;;;5074357;28;19957;-71
2023/03/28 08:01:58;;;;;;;;;;;;;;;;;;5073750;28;19924;-71
2023/03/28 08:05:02;;;;;;;;;;;;;;;;;;5075302;28;20021;-72
2023/03/28 08:08:07;;;;;;;;;;;;;;;;;;5076069;28;20383;-73
2023/03/28 08:11:14;;;;;;;;;;;;;;;;;;5075969;28;20339;-71
2023/03/28 08:14:23;;;;;;;;;;;;;;;;;;5074958;28;19919;-72
2023/03/28 08:17:26;;;;;;;;;;;;;;;;;;5075613;28;19918;-72
2023/03/28 08:20:29;;;;;;;;;;;;;;;;;;5074750;28;19920;-71
2023/03/28 08:23:32;;;;;;;;;;;;;;;;;;5075585;28;20387;-71
2023/03/28 08:26:55;;;;;;;;;;;;;;;;;;5075640;28;19919;-71
2023/03/28 08:29:58;;;;;;;;;;;;;;;;;;5073671;28;19968;-72
2023/03/28 08:33:03;;;;;;;;;;;;;;;;;;5073576;28;19931;-71
2023/03/28 08:36:06;;;;;;;;;;;;;;;;;;5074492;28;19964;-72
2023/03/28 08:39:09;;;;;;;;;;;;;;;;;;5074447;28;19920;-71
2023/03/28 08:42:12;;;;;;;;;;;;;;;;;;5074416;28;20507;-69
2023/03/28 08:45:15;;;;;;;;;;;;;;;;;;5074326;28;19919;-71
2023/03/28 08:48:18;;;;;;;;;;;;;;;;;;5074331;28;19958;-70
2023/03/28 08:51:22;;;;;;;;;;;;;;;;;;5074211;28;19966;-70
2023/03/28 08:54:25;;;;;;;;;;;;;;;;;;5073957;28;19973;-71
2023/03/28 08:57:28;;;;;;;;;;;;;;;;;;5075042;28;20026;-71
2023/03/28 09:00:31;;;;;;;;;;;;;;;;;;5074870;28;20441;-70
2023/03/28 09:03:34;;;;;;;;;;;;;;;;;;5072793;28;20324;-70
2023/03/28 09:06:40;;;;;;;;;;;;;;;;;;5073942;28;19966;-70
2023/03/28 09:09:47;;;;;;;;;;;;;;;;;;5073678;28;20081;-71
2023/03/28 09:13:09;;;;;;;;;;;;;;;;;;5074762;28;20296;-72
2023/03/28 09:16:13;;;;;;;;;;;;;;;;;;5074912;28;19957;-72
2023/03/28 09:19:20;;;;;;;;;;;;;;;;;;5073773;28;19923;-71
2023/03/28 09:22:28;;;;;;;;;;;;;;;;;;5073705;28;19923;-71
2023/03/28 09:25:31;;;;;;;;;;;;;;;;;;5073795;28;19919;-71
2023/03/28 09:28:34;;;;;;;;;;;;;;;;;;5073543;28;19920;-72
2023/03/28 09:31:37;;;;;;;;;;;;;;;;;;5074039;28;19919;-71
2023/03/28 09:34:41;;;;;;;;;;;;;;;;;;5073514;28;19920;-71
2023/03/28 09:37:44;;;;;;;;;;;;;;;;;;5074443;28;19965;-71
2023/03/28 09:40:50;;;;;;;;;;;;;;;;;;5073471;28;19969;-71
2023/03/28 09:43:53;;;;;;;;;;;;;;;;;;5074076;28;20027;-71
2023/03/28 09:47:14;;;;;;;;;;;;;;;;;;5073904;28;20341;-71
2023/03/28 09:50:26;;;;;;;;;;;;;;;;;;5073184;28;20050;-71
2023/03/28 09:53:32;;;;;;;;;;;;;;;;;;5072848;28;20027;-71
2023/03/28 09:56:35;;;;;;;;;;;;;;;;;;5073910;28;19958;-71
2023/03/28 10:00:13;;;;;;;;;;;;;;;;;;5052710;28;19923;-71
2023/03/28 10:03:28;;;;;;;;;;;;;;;;;;5072765;28;19970;-71
2023/03/28 10:06:30;;;;;;;;;;;;;;;;;;5072769;28;20102;-71
2023/03/28 10:09:35;;;;;;;;;;;;;;;;;;5072764;28;19919;-72
2023/03/28 10:12:42;;;;;;;;;;;;;;;;;;5072710;28;19962;-71
2023/03/28 10:15:45;;;;;;;;;;;;;;;;;;5072484;28;19920;-74
2023/03/28 10:18:57;;;;;;;;;;;;;;;;;;5073383;28;20336;-73
2023/03/28 10:22:20;;;;;;;;;;;;;;;;;;5072125;28;19943;-72
2023/03/28 10:25:25;;;;;;;;;;;;;;;;;;5072578;28;19983;-72
2023/03/28 10:28:30;;;;;;;;;;;;;;;;;;5072314;28;19934;-71
2023/03/28 10:31:33;;;;;;;;;;;;;;;;;;5072447;28;20315;-71
2023/03/28 10:35:14;;;;;;;;;;;;;;;;;;5071765;28;20330;-72
2023/03/28 10:38:23;;;;;;;;;;;;;;;;;;5072225;28;19966;-72
2023/03/28 10:41:46;;;;;;;;;;;;;;;;;;5062401;28;20384;-71
2023/03/28 10:44:51;;;;;;;;;;;;;;;;;;5072128;28;19920;-71
2023/03/28 10:47:55;;;;;;;;;;;;;;;;;;5072140;28;20015;-72
2023/03/28 10:50:58;;;;;;;;;;;;;;;;;;5072949;28;19922;-74
2023/03/28 10:54:01;;;;;;;;;;;;;;;;;;5072030;28;20442;-74
2023/03/28 10:57:06;;;;;;;;;;;;;;;;;;5072266;28;19919;-73
2023/03/28 11:00:11;;;;;;;;;;;;;;;;;;5072011;28;19919;-73
2023/03/28 11:03:15;;;;;;;;;;;;;;;;;;5072251;28;20326;-73
2023/03/28 11:06:21;;;;;;;;;;;;;;;;;;5072295;28;20003;-73
2023/03/28 11:09:25;;;;;;;;;;;;;;;;;;5071899;28;19974;-74
2023/03/28 11:12:47;;;;;;;;;;;;;;;;;;5072928;28;20422;-73
2023/03/28 11:15:50;;;;;;;;;;;;;;;;;;5071814;28;19918;-75
2023/03/28 11:19:06;;;;;;;;;;;;;;;;;;5071903;28;19943;-72
2023/03/28 11:22:14;;;;;;;;;;;;;;;;;;5071503;28;19923;-72
2023/03/28 11:25:19;;;;;;;;;;;;;;;;;;5071375;28;19966;-71
2023/03/28 11:28:45;;;;;;;;;;;;;;;;;;5072495;28;20043;-72
2023/03/28 11:31:53;;;;;;;;;;;;;;;;;;5071431;28;19924;-72
2023/03/28 11:34:55;;;;;;;;;;;;;;;;;;5071493;28;19920;-72
2023/03/28 11:37:58;;;;;;;;;;;;;;;;;;5071528;28;20413;-72
2023/03/28 11:41:01;;;;;;;;;;;;;;;;;;5071665;28;19970;-72
2023/03/28 11:44:30;;;;;;;;;;;;;;;;;;5072415;28;19959;-73
2023/03/28 11:47:33;;;;;;;;;;;;;;;;;;5071475;28;20054;-72
2023/03/28 11:50:43;;;;;;;;;;;;;;;;;;5071798;28;20387;-72
2023/03/28 11:53:55;;;;;;;;;;;;;;;;;;5071211;28;19927;-73
2023/03/28 11:57:02;;;;;;;;;;;;;;;;;;5071377;28;19919;-72
2023/03/28 12:00:12;;;;;;;;;;;;;;;;;;5071309;28;20170;-73
2023/03/28 12:03:19;;;;;;;;;;;;;;;;;;5071299;28;20036;-71
2023/03/28 12:06:27;;;;;;;;;;;;;;;;;;5071324;28;19958;-73
2023/03/28 12:09:30;;;;;;;;;;;;;;;;;;5071199;28;20352;-73
2023/03/28 12:12:33;;;;;;;;;;;;;;;;;;5071228;28;20046;-73
2023/03/28 12:15:36;;;;;;;;;;;;;;;;;;5072064;28;20433;-71
2023/03/28 12:18:48;;;;;;;;;;;;;;;;;;5071191;28;19951;-72
2023/03/28 12:22:10;;;;;;;;;;;;;;;;;;5071845;28;19925;-72
2023/03/28 12:25:18;;;;;;;;;;;;;;;;;;5071088;28;20315;-71
2023/03/28 12:28:21;;;;;;;;;;;;;;;;;;5071045;28;19939;-72
2023/03/28 12:31:25;;;;;;;;;;;;;;;;;;5071219;28;19920;-71
2023/03/28 12:34:32;;;;;;;;;;;;;;;;;;5071314;28;19919;-70
2023/03/28 12:37:56;;;;;;;;;;;;;;;;;;5064430;28;19919;-72
2023/03/28 12:40:59;;;;;;;;;;;;;;;;;;5074362;28;19924;-74
2023/03/28 12:44:04;;;;;;;;;;;;;;;;;;5074717;28;19973;-72
2023/03/28 12:47:14;;;;;;;;;;;;;;;;;;5074525;28;19935;-72
2023/03/28 12:50:17;;;;;;;;;;;;;;;;;;5072717;28;19919;-71
2023/03/28 12:53:23;;;;;;;;;;;;;;;;;;5072614;28;20008;-73
2023/03/28 12:56:25;;;;;;;;;;;;;;;;;;5073869;28;19923;-72
2023/03/28 12:59:28;;;;;;;;;;;;;;;;;;5073790;28;19920;-73
2023/03/28 13:02:31;;;;;;;;;;;;;;;;;;5073624;28;19923;-75
2023/03/28 13:05:37;;;;;;;;;;;;;;;;;;5075069;28;19919;-75
2023/03/28 13:08:40;;;;;;;;;;;;;;;;;;5075010;28;19962;-73
2023/03/28 13:11:43;;;;;;;;;;;;;;;;;;5074981;28;19923;-75
2023/03/28 13:14:46;;;;;;;;;;;;;;;;;;5074768;28;19962;-73
2023/03/28 13:17:50;;;;;;;;;;;;;;;;;;5074826;28;20003;-74
2023/03/28 13:20:53;;;;;;;;;;;;;;;;;;5073692;28;19932;-74
2023/03/28 13:23:58;;;;;;;;;;;;;;;;;;5073823;28;19920;-73
2023/03/28 13:27:00;;;;;;;;;;;;;;;;;;5074547;28;19919;-71
2023/03/28 13:30:04;;;;;;;;;;;;;;;;;;5073164;28;19919;-72
2023/03/28 13:33:07;;;;;;;;;;;;;;;;;;5073366;28;20308;-71
2023/03/28 13:36:09;;;;;;;;;;;;;;;;;;5073961;28;20016;-71
2023/03/28 13:39:12;;;;;;;;;;;;;;;;;;5074066;28;19966;-73
2023/03/28 13:42:16;;;;;;;;;;;;;;;;;;5074265;28;19962;-73
2023/03/28 13:45:20;;;;;;;;;;;;;;;;;;5074204;28;19919;-73
2023/03/28 13:48:23;;;;;;;;;;;;;;;;;;5073755;28;19923;-73
2023/03/28 13:51:26;;;;;;;;;;;;;;;;;;5073222;28;20288;-73
2023/03/28 13:54:29;;;;;;;;;;;;;;;;;;5073775;28;20292;-73
2023/03/28 13:57:32;;;;;;;;;;;;;;;;;;5073985;28;19966;-74
2023/03/28 14:00:35;;;;;;;;;;;;;;;;;;5074008;28;20013;-73
2023/03/28 14:03:40;;;;;;;;;;;;;;;;;;5073843;28;19920;-73
2023/03/28 14:06:44;;;;;;;;;;;;;;;;;;5072895;28;20466;-72
2023/03/28 14:09:49;;;;;;;;;;;;;;;;;;5073536;28;19919;-73
2023/03/28 14:12:52;;;;;;;;;;;;;;;;;;5073549;28;20338;-73
2023/03/28 14:15:55;;;;;;;;;;;;;;;;;;5072603;28;19920;-74
2023/03/28 14:18:58;;;;;;;;;;;;;;;;;;5073473;28;20311;-72
2023/03/28 14:22:00;;;;;;;;;;;;;;;;;;5073290;28;19923;-73
2023/03/28 14:25:03;;;;;;;;;;;;;;;;;;5073172;28;19924;-72
2023/03/28 14:28:07;;;;;;;;;;;;;;;;;;5073512;28;20391;-72
2023/03/28 14:31:10;;;;;;;;;;;;;;;;;;5073129;28;19974;-73
2023/03/28 14:34:14;;;;;;;;;;;;;;;;;;5073268;28;19977;-72
2023/03/28 14:37:17;;;;;;;;;;;;;;;;;;5072199;28;19920;-73
2023/03/28 14:40:21;;;;;;;;;;;;;;;;;;5084159;28;20057;-75
2023/03/28 14:43:25;;;;;;;;;;;;;;;;;;5072055;28;19926;-73
2023/03/28 14:46:29;;;;;;;;;;;;;;;;;;5072729;28;20392;-73
2023/03/28 14:49:31;;;;;;;;;;;;;;;;;;5072937;28;20312;-73
2023/03/28 14:52:39;;;;;;;;;;;;;;;;;;5072889;28;19919;-73
2023/03/28 14:55:43;;;;;;;;;;;;;;;;;;5072507;28;19934;-73
2023/03/28 14:58:46;;;;;;;;;;;;;;;;;;5073095;28;19994;-72
2023/03/28 15:01:50;;;;;;;;;;;;;;;;;;5071375;28;19939;-74
2023/03/28 15:04:53;;;;;;;;;;;;;;;;;;5073247;28;19939;-74
2023/03/28 15:07:58;;;;;;;;;;;;;;;;;;5072912;28;19927;-75
2023/03/28 15:11:02;;;;;;;;;;;;;;;;;;5083652;28;19954;-75
2023/03/28 15:14:05;;;;;;;;;;;;;;;;;;5072663;28;20399;-73
2023/03/28 15:17:09;;;;;;;;;;;;;;;;;;5072287;28;20054;-74
2023/03/28 15:20:13;;;;;;;;;;;;;;;;;;5072691;28;19943;-72
2023/03/28 15:23:16;;;;;;;;;;;;;;;;;;5072090;28;20065;-72
2023/03/28 15:26:19;;;;;;;;;;;;;;;;;;5072784;28;19919;-71
2023/03/28 15:29:26;;;;;;;;;;;;;;;;;;5072984;28;19923;-72
2023/03/28 15:32:29;;;;;;;;;;;;;;;;;;5072542;28;19938;-72
2023/03/28 15:35:32;;;;;;;;;;;;;;;;;;5072352;28;20433;-72
2023/03/28 15:38:34;;;;;;;;;;;;;;;;;;5072691;28;19947;-70
2023/03/28 15:41:37;;;;;;;;;;;;;;;;;;5072387;28;19927;-74
2023/03/28 15:44:40;;;;;;;;;;;;;;;;;;5072287;28;20387;-74
2023/03/28 15:47:43;;;;;;;;;;;;;;;;;;5071474;28;19999;-74
2023/03/28 15:50:47;;;;;;;;;;;;;;;;;;5071272;28;19919;-74
2023/03/28 15:53:50;;;;;;;;;;;;;;;;;;5071204;28;19998;-74
2023/03/28 15:56:53;;;;;;;;;;;;;;;;;;5072342;28;20418;-71
2023/03/28 15:59:57;;;;;;;;;;;;;;;;;;5071803;28;19983;-72
2023/03/28 16:03:00;;;;;;;;;;;;;;;;;;5072035;28;20317;-71
2023/03/28 16:06:03;;;;;;;;;;;;;;;;;;5072389;28;19923;-71
2023/03/28 16:09:06;;;;;;;;;;;;;;;;;;5072063;28;20030;-71
2023/03/28 16:12:12;;;;;;;;;;;;;;;;;;5073997;28;19920;-72
2023/03/28 16:15:21;;;;;;;;;;;;;;;;;;5074263;28;19966;-71
2023/03/28 16:18:36;;;;;;;;;;;;;;;;;;5074930;28;20422;-72
2023/03/28 16:21:39;;;;;;;;;;;;;;;;;;5074820;28;20287;-72
2023/03/28 16:24:42;;;;;;;;;;;;;;;;;;5074478;28;19970;-72
2023/03/28 16:27:46;;;;;;;;;;;;;;;;;;5074352;28;20336;-72
2023/03/28 16:30:49;;;;;;;;;;;;;;;;;;5075169;28;20380;-72
2023/03/28 16:33:52;;;;;;;;;;;;;;;;;;5075506;28;19919;-71
2023/03/28 16:36:56;;;;;;;;;;;;;;;;;;5075375;28;19919;-71
2023/03/28 16:39:59;;;;;;;;;;;;;;;;;;5075402;28;19919;-71
2023/03/28 16:43:04;;;;;;;;;;;;;;;;;;5075364;28;19927;-72
2023/03/28 16:46:11;;;;;;;;;;;;;;;;;;5075477;28;19966;-71
2023/03/28 16:49:16;;;;;;;;;;;;;;;;;;5075029;28;19920;-73
2023/03/28 16:52:20;;;;;;;;;;;;;;;;;;5075166;28;19977;-72
2023/03/28 16:55:24;;;;;;;;;;;;;;;;;;5073224;28;19928;-73
2023/03/28 16:58:26;;;;;;;;;;;;;;;;;;5075431;28;19920;-73
2023/03/28 17:01:30;;;;;;;;;;;;;;;;;;5075178;28;19923;-74
2023/03/28 17:04:34;;;;;;;;;;;;;;;;;;5074969;28;19923;-74
2023/03/28 17:07:37;;;;;;;;;;;;;;;;;;5075106;28;20034;-74
2023/03/28 17:10:42;;;;;;;;;;;;;;;;;;5073942;28;19927;-75
2023/03/28 17:13:46;;;;;;;;;;;;;;;;;;5075154;28;19975;-75
2023/03/28 17:16:49;;;;;;;;;;;;;;;;;;5075104;28;19943;-73
2023/03/28 17:19:52;;;;;;;;;;;;;;;;;;5074688;28;19920;-73
2023/03/28 17:22:55;;;;;;;;;;;;;;;;;;5073647;28;19942;-73
2023/03/28 17:25:58;;;;;;;;;;;;;;;;;;5074709;28;19966;-74
2023/03/28 17:29:01;;;;;;;;;;;;;;;;;;5073420;28;19923;-75
2023/03/28 17:32:05;;;;;;;;;;;;;;;;;;5074475;28;19924;-78
2023/03/28 17:35:08;;;;;;;;;;;;;;;;;;5074288;28;19923;-73
2023/03/28 17:38:10;;;;;;;;;;;;;;;;;;5074303;28;19919;-72
2023/03/28 17:41:13;;;;;;;;;;;;;;;;;;5074240;28;19928;-72
2023/03/28 17:44:18;;;;;;;;;;;;;;;;;;5073560;28;20007;-72
2023/03/28 17:47:22;;;;;;;;;;;;;;;;;;5074238;28;19924;-74
2023/03/28 17:50:25;;;;;;;;;;;;;;;;;;5073775;28;19950;-72
2023/03/28 17:53:29;;;;;;;;;;;;;;;;;;5073573;28;20000;-73
2023/03/28 17:56:32;;;;;;;;;;;;;;;;;;5074026;28;19919;-72
2023/03/28 17:59:35;;;;;;;;;;;;;;;;;;5073755;28;19920;-74
2023/03/28 18:02:41;;;;;;;;;;;;;;;;;;5073826;28;19924;-72
2023/03/28 18:05:58;;;;;;;;;;;;;;;;;;5072850;28;20272;-71
2023/03/28 18:09:01;;;;;;;;;;;;;;;;;;5073877;28;20350;-72
2023/03/28 18:12:04;;;;;;;;;;;;;;;;;;5073776;28;19920;-72
2023/03/28 18:15:07;;;;;;;;;;;;;;;;;;5073831;28;20445;-71
2023/03/28 18:18:14;;;;;;;;;;;;;;;;;;5073533;28;19920;-72
2023/03/28 18:21:16;;;;;;;;;;;;;;;;;;5073592;28;19928;-71
2023/03/28 18:24:21;;;;;;;;;;;;;;;;;;5073008;28;19951;-72
2023/03/28 18:27:25;;;;;;;;;;;;;;;;;;5073676;28;19969;-71
2023/03/28 18:30:28;;;;;;;;;;;;;;;;;;5073330;28;20443;-72
2023/03/28 18:33:32;;;;;;;;;;;;;;;;;;5073364;28;20004;-71
2023/03/28 18:36:39;;;;;;;;;;;;;;;;;;5073320;28;20011;-71
2023/03/28 18:39:44;;;;;;;;;;;;;;;;;;5072893;28;19919;-71
2023/03/28 18:42:49;;;;;;;;;;;;;;;;;;5073022;28;20323;-71
2023/03/28 18:45:53;;;;;;;;;;;;;;;;;;5073178;28;20011;-71
2023/03/28 18:48:59;;;;;;;;;;;;;;;;;;5072965;28;20015;-71
2023/03/28 18:52:05;;;;;;;;;;;;;;;;;;5072902;28;19957;-71
2023/03/28 18:55:08;;;;;;;;;;;;;;;;;;5072674;28;20020;-71
2023/03/28 18:58:11;;;;;;;;;;;;;;;;;;5072894;28;19919;-71
2023/03/28 19:01:15;;;;;;;;;;;;;;;;;;5072453;28;20449;-71
2023/03/28 19:04:18;;;;;;;;;;;;;;;;;;5072533;28;20006;-71
2023/03/28 19:07:26;;;;;;;;;;;;;;;;;;5072415;28;19920;-72
2023/03/28 19:10:28;;;;;;;;;;;;;;;;;;5072300;28;19920;-74
2023/03/28 19:13:31;;;;;;;;;;;;;;;;;;5072602;28;19918;-73
2023/03/28 19:16:34;;;;;;;;;;;;;;;;;;5072596;28;19979;-71
2023/03/28 19:19:37;;;;;;;;;;;;;;;;;;5072319;28;20007;-71
2023/03/28 19:22:40;;;;;;;;;;;;;;;;;;5072495;28;19923;-71
2023/03/28 19:25:43;;;;;;;;;;;;;;;;;;5072402;28;19920;-71
2023/03/28 19:28:47;;;;;;;;;;;;;;;;;;5071500;28;20288;-71
2023/03/28 19:36:09;;;;;;;;;;;;;;;;;;5072257;28;19983;-71
2023/03/28 19:39:35;;;;;;;;;;;;;;;;;;5078637;28;20303;-72
2023/03/28 19:42:47;;;;;;;;;;;;;;;;;;5068231;28;19927;-71
2023/03/28 19:45:51;;;;;;;;;;;;;;;;;;5071517;28;20383;-72
2023/03/28 19:48:55;;;;;;;;;;;;;;;;;;5075289;28;19967;-72
2023/03/28 19:51:57;;;;;;;;;;;;;;;;;;5074668;28;19957;-71
2023/03/28 19:55:00;;;;;;;;;;;;;;;;;;5073808;28;19974;-71
2023/03/28 19:58:08;;;;;;;;;;;;;;;;;;5074917;28;19987;-71
2023/03/28 20:01:18;;;;;;;;;;;;;;;;;;5076745;28;19927;-72
2023/03/28 20:04:22;;;;;;;;;;;;;;;;;;5075777;28;20303;-71
2023/03/28 20:07:25;;;;;;;;;;;;;;;;;;5074973;28;19920;-71
2023/03/28 20:10:27;;;;;;;;;;;;;;;;;;5074697;28;20407;-71
2023/03/28 20:13:30;;;;;;;;;;;;;;;;;;5073596;28;19935;-71
2023/03/28 20:16:34;;;;;;;;;;;;;;;;;;5071191;28;20405;-69
2023/03/28 20:19:37;;;;;;;;;;;;;;;;;;5072241;28;20391;-69
2023/03/28 20:22:40;;;;;;;;;;;;;;;;;;5072211;28;20418;-69
2023/03/28 20:25:43;;;;;;;;;;;;;;;;;;5072778;28;19962;-68
2023/03/28 20:28:48;;;;;;;;;;;;;;;;;;5072647;28;19924;-69
2023/03/28 20:31:51;;;;;;;;;;;;;;;;;;5073136;28;19966;-69
2023/03/28 20:34:53;;;;;;;;;;;;;;;;;;5071325;28;19923;-69
2023/03/28 20:37:57;;;;;;;;;;;;;;;;;;5071660;28;19966;-69
2023/03/28 20:41:01;;;;;;;;;;;;;;;;;;5072122;28;20000;-69
2023/03/28 20:44:03;;;;;;;;;;;;;;;;;;5072577;28;20082;-69
2023/03/28 20:47:06;;;;;;;;;;;;;;;;;;5073042;28;19923;-69
2023/03/28 20:50:09;;;;;;;;;;;;;;;;;;5072837;28;19919;-69
2023/03/28 20:53:12;;;;;;;;;;;;;;;;;;5073031;28;19959;-71
2023/03/28 20:56:16;;;;;;;;;;;;;;;;;;5071050;28;20046;-70
2023/03/28 20:59:19;;;;;;;;;;;;;;;;;;5071134;28;19938;-70
2023/03/28 21:02:24;;;;;;;;;;;;;;;;;;5071500;28;20408;-70
2023/03/28 21:05:27;;;;;;;;;;;;;;;;;;5072157;28;20070;-70
2023/03/28 21:08:31;;;;;;;;;;;;;;;;;;5072550;28;19939;-70
2023/03/28 21:11:34;;;;;;;;;;;;;;;;;;5073026;28;19927;-70
2023/03/28 21:14:37;;;;;;;;;;;;;;;;;;5070828;28;20072;-69
2023/03/28 21:17:39;;;;;;;;;;;;;;;;;;5070806;28;20399;-69